IGO910 VIDP-VECC
Flight info
| Callsign | IGO910 |
|---|---|
| Flight time | N/A |
| Altitude | 37000 |
| Route | ALI G452 LKN W45 PPT W52 SEGMO SEGMO2A |
| Aircraft | A21N/M-SDE3FGHIRWY/LB1 |
Departure
| Time | N/A |
|---|---|
| Airport | Indira Gandhi International Airport (VIDP) |
Arrival
| Time | 2026-04-22 13:02 |
|---|---|
| Airport | Netaji Subhash Chandra Bose International Airport (VECC) |
| Time | Latitude | Longitude | Altitude | Speed | Heading |
|---|---|---|---|---|---|
| 2026-04-22 12:00 | 25.45685 | 85.24734 | 36654 ft | 470 kts | 137° |
| 2026-04-22 12:00 | 25.43332 | 85.27412 | 36654 ft | 470 kts | 137° |
| 2026-04-22 12:01 | 25.39446 | 85.31849 | 36654 ft | 470 kts | 137° |
| 2026-04-22 12:01 | 25.34784 | 85.37179 | 36654 ft | 470 kts | 137° |
| 2026-04-22 12:02 | 25.29385 | 85.43348 | 36654 ft | 470 kts | 137° |
| 2026-04-22 12:02 | 25.25498 | 85.47784 | 36654 ft | 470 kts | 137° |
| 2026-04-22 12:03 | 25.20822 | 85.53116 | 36655 ft | 470 kts | 137° |
| 2026-04-22 12:03 | 25.15357 | 85.59338 | 36655 ft | 470 kts | 137° |
| 2026-04-22 12:04 | 25.10696 | 85.64638 | 36655 ft | 470 kts | 137° |
| 2026-04-22 12:04 | 25.06798 | 85.69065 | 36655 ft | 469 kts | 137° |
| 2026-04-22 12:05 | 25.02195 | 85.74393 | 36660 ft | 467 kts | 136° |
| 2026-04-22 12:05 | 24.97634 | 85.79693 | 36667 ft | 465 kts | 135° |
| 2026-04-22 12:06 | 24.93074 | 85.84980 | 36673 ft | 463 kts | 135° |
| 2026-04-22 12:06 | 24.88527 | 85.90245 | 36678 ft | 462 kts | 135° |
| 2026-04-22 12:07 | 24.84018 | 85.95454 | 36679 ft | 462 kts | 135° |
| 2026-04-22 12:07 | 24.79494 | 86.00674 | 36679 ft | 462 kts | 135° |
| 2026-04-22 12:08 | 24.74973 | 86.05885 | 36679 ft | 462 kts | 135° |
| 2026-04-22 12:08 | 24.70421 | 86.11124 | 36679 ft | 462 kts | 135° |
| 2026-04-22 12:09 | 24.65140 | 86.17194 | 36679 ft | 462 kts | 135° |
| 2026-04-22 12:09 | 24.61348 | 86.21549 | 36679 ft | 462 kts | 135° |
| 2026-04-22 12:10 | 24.56783 | 86.26785 | 36679 ft | 462 kts | 135° |
| 2026-04-22 12:10 | 24.52240 | 86.31991 | 36679 ft | 462 kts | 135° |
| 2026-04-22 12:11 | 24.46937 | 86.38060 | 36679 ft | 462 kts | 135° |
| 2026-04-22 12:11 | 24.43149 | 86.42390 | 36679 ft | 462 kts | 135° |
| 2026-04-22 12:12 | 24.38605 | 86.47578 | 36679 ft | 462 kts | 135° |
| 2026-04-22 12:12 | 24.34043 | 86.52782 | 36679 ft | 462 kts | 135° |
| 2026-04-22 12:13 | 24.29500 | 86.57957 | 36679 ft | 462 kts | 135° |
| 2026-04-22 12:13 | 24.24956 | 86.63131 | 36679 ft | 463 kts | 135° |
| 2026-04-22 12:14 | 24.20430 | 86.68334 | 36679 ft | 462 kts | 135° |
| 2026-04-22 12:14 | 24.14673 | 86.73803 | 36679 ft | 459 kts | 147° |
| 2026-04-22 12:15 | 24.09058 | 86.77315 | 36680 ft | 456 kts | 158° |
| 2026-04-22 12:15 | 24.04014 | 86.79358 | 36684 ft | 454 kts | 166° |
| 2026-04-22 12:16 | 23.97797 | 86.81260 | 36691 ft | 453 kts | 167° |
| 2026-04-22 12:16 | 23.90581 | 86.83460 | 36697 ft | 454 kts | 167° |
| 2026-04-22 12:17 | 23.84583 | 86.86074 | 36700 ft | 458 kts | 153° |
| 2026-04-22 12:17 | 23.80123 | 86.89417 | 36703 ft | 461 kts | 141° |
| 2026-04-22 12:18 | 23.75692 | 86.94675 | 36707 ft | 464 kts | 127° |
| 2026-04-22 12:18 | 23.71504 | 87.01693 | 36708 ft | 464 kts | 124° |
| 2026-04-22 12:19 | 23.68559 | 87.06733 | 36708 ft | 464 kts | 124° |
| 2026-04-22 12:19 | 23.65014 | 87.12743 | 36708 ft | 463 kts | 124° |
| 2026-04-22 12:20 | 23.60851 | 87.19757 | 36708 ft | 463 kts | 124° |
| 2026-04-22 12:20 | 23.57865 | 87.24777 | 36708 ft | 463 kts | 124° |
| 2026-04-22 12:21 | 23.54305 | 87.30756 | 36708 ft | 463 kts | 124° |
| 2026-04-22 12:21 | 23.50145 | 87.37731 | 36708 ft | 463 kts | 124° |
| 2026-04-22 12:22 | 23.47149 | 87.42750 | 36708 ft | 463 kts | 124° |
| 2026-04-22 12:22 | 23.42975 | 87.49730 | 36708 ft | 463 kts | 124° |
| 2026-04-22 12:23 | 23.39972 | 87.54745 | 36708 ft | 463 kts | 124° |
| 2026-04-22 12:23 | 23.36124 | 87.60473 | 36703 ft | 459 kts | 137° |
| 2026-04-22 12:24 | 23.31007 | 87.64771 | 36709 ft | 456 kts | 147° |
| 2026-04-22 12:24 | 23.25691 | 87.68735 | 36650 ft | 453 kts | 148° |
| 2026-04-22 12:25 | 23.23023 | 87.70734 | 36268 ft | 451 kts | 148° |
| 2026-04-22 12:25 | 23.20413 | 87.72699 | 35548 ft | 453 kts | 148° |
| 2026-04-22 12:25 | 23.17776 | 87.74688 | 34701 ft | 457 kts | 147° |
| 2026-04-22 12:25 | 23.15095 | 87.76711 | 34054 ft | 458 kts | 147° |
| 2026-04-22 12:26 | 23.12446 | 87.78710 | 33738 ft | 460 kts | 147° |
| 2026-04-22 12:26 | 23.09749 | 87.80746 | 33707 ft | 462 kts | 147° |
| 2026-04-22 12:26 | 23.04382 | 87.84799 | 33705 ft | 463 kts | 147° |
| 2026-04-22 12:27 | 22.99016 | 87.88845 | 33705 ft | 463 kts | 147° |
| 2026-04-22 12:27 | 22.93706 | 87.92848 | 33700 ft | 441 kts | 146° |
| 2026-04-22 12:28 | 22.90392 | 87.95348 | 33697 ft | 420 kts | 145° |
| 2026-04-22 12:28 | 22.88858 | 87.96718 | 33677 ft | 410 kts | 133° |
| 2026-04-22 12:28 | 22.87341 | 87.99271 | 33683 ft | 396 kts | 110° |
| 2026-04-22 12:28 | 22.86798 | 88.02255 | 33696 ft | 395 kts | 89° |
| 2026-04-22 12:29 | 22.87279 | 88.05233 | 33701 ft | 395 kts | 67° |
| 2026-04-22 12:29 | 22.89354 | 88.08528 | 33703 ft | 393 kts | 39° |
| 2026-04-22 12:29 | 22.90900 | 88.09692 | 33702 ft | 392 kts | 25° |
| 2026-04-22 12:29 | 22.94453 | 88.10642 | 33701 ft | 389 kts | 356° |
| 2026-04-22 12:30 | 22.99641 | 88.08984 | 33696 ft | 383 kts | 323° |
| 2026-04-22 12:30 | 23.01006 | 88.07742 | 33699 ft | 380 kts | 310° |
| 2026-04-22 12:30 | 23.02533 | 88.05348 | 33713 ft | 377 kts | 298° |
| 2026-04-22 12:31 | 23.04243 | 88.01986 | 33708 ft | 376 kts | 297° |
| 2026-04-22 12:31 | 23.06399 | 87.97757 | 33705 ft | 375 kts | 297° |
| 2026-04-22 12:32 | 23.09180 | 87.91721 | 33683 ft | 372 kts | 279° |
| 2026-04-22 12:32 | 23.08743 | 87.87071 | 33701 ft | 371 kts | 246° |
| 2026-04-22 12:32 | 23.07348 | 87.84670 | 33703 ft | 373 kts | 228° |
| 2026-04-22 12:33 | 23.05278 | 87.82904 | 33704 ft | 377 kts | 209° |
| 2026-04-22 12:33 | 23.02734 | 87.81992 | 33703 ft | 382 kts | 189° |
| 2026-04-22 12:33 | 23.00025 | 87.82092 | 33701 ft | 389 kts | 168° |
| 2026-04-22 12:33 | 22.97472 | 87.83241 | 33700 ft | 394 kts | 147° |
| 2026-04-22 12:34 | 22.95452 | 87.85315 | 33702 ft | 398 kts | 126° |
| 2026-04-22 12:34 | 22.93534 | 87.88840 | 33708 ft | 397 kts | 119° |
| 2026-04-22 12:34 | 22.92211 | 87.91492 | 33542 ft | 393 kts | 119° |
| 2026-04-22 12:34 | 22.90877 | 87.94121 | 33091 ft | 391 kts | 120° |
| 2026-04-22 12:35 | 22.89560 | 87.96788 | 32596 ft | 390 kts | 112° |
| 2026-04-22 12:35 | 22.89055 | 87.98668 | 32243 ft | 389 kts | 96° |
| 2026-04-22 12:35 | 22.89219 | 88.01627 | 31761 ft | 386 kts | 73° |
| 2026-04-22 12:35 | 22.90894 | 88.05070 | 31177 ft | 379 kts | 46° |
| 2026-04-22 12:36 | 22.92971 | 88.06895 | 30708 ft | 374 kts | 26° |
| 2026-04-22 12:36 | 22.94589 | 88.07622 | 30418 ft | 369 kts | 13° |
| 2026-04-22 12:36 | 22.97136 | 88.07937 | 29971 ft | 363 kts | 353° |
| 2026-04-22 12:36 | 23.00353 | 88.06950 | 29356 ft | 354 kts | 328° |
| 2026-04-22 12:37 | 23.02314 | 88.05292 | 28909 ft | 347 kts | 309° |
| 2026-04-22 12:37 | 23.03295 | 88.03863 | 28622 ft | 342 kts | 299° |
| 2026-04-22 12:37 | 23.04475 | 88.01612 | 28241 ft | 338 kts | 296° |
| 2026-04-22 12:37 | 23.05632 | 87.99309 | 27826 ft | 335 kts | 297° |
| 2026-04-22 12:38 | 23.06777 | 87.97056 | 27413 ft | 333 kts | 297° |
| 2026-04-22 12:38 | 23.07924 | 87.94830 | 27004 ft | 330 kts | 297° |
| 2026-04-22 12:38 | 23.08911 | 87.92541 | 26575 ft | 326 kts | 284° |
| 2026-04-22 12:38 | 23.09199 | 87.89258 | 26001 ft | 320 kts | 262° |
| 2026-04-22 12:39 | 23.08881 | 87.87645 | 25720 ft | 318 kts | 251° |
| 2026-04-22 12:39 | 23.06374 | 87.83714 | 24883 ft | 315 kts | 218° |
| 2026-04-22 12:39 | 23.04426 | 87.82494 | 24463 ft | 315 kts | 202° |
| 2026-04-22 12:40 | 23.02257 | 87.81947 | 24050 ft | 316 kts | 185° |
| 2026-04-22 12:40 | 23.00004 | 87.82124 | 23628 ft | 317 kts | 168° |
| 2026-04-22 12:40 | 22.97907 | 87.82997 | 23223 ft | 318 kts | 151° |
| 2026-04-22 12:40 | 22.95648 | 87.85104 | 22699 ft | 318 kts | 128° |
| 2026-04-22 12:41 | 22.94448 | 87.87157 | 22337 ft | 316 kts | 121° |
| 2026-04-22 12:41 | 22.93711 | 87.88593 | 22090 ft | 314 kts | 120° |
| 2026-04-22 12:41 | 22.92655 | 87.90683 | 21723 ft | 312 kts | 120° |
| 2026-04-22 12:41 | 22.91595 | 87.92757 | 21359 ft | 309 kts | 120° |
| 2026-04-22 12:42 | 22.90526 | 87.94822 | 20994 ft | 306 kts | 120° |
| 2026-04-22 12:42 | 22.89550 | 87.96923 | 20615 ft | 305 kts | 109° |
| 2026-04-22 12:42 | 22.89123 | 87.99191 | 20230 ft | 303 kts | 92° |
| 2026-04-22 12:42 | 22.89312 | 88.01524 | 19839 ft | 302 kts | 76° |
| 2026-04-22 12:43 | 22.90454 | 88.04322 | 19307 ft | 300 kts | 54° |
| 2026-04-22 12:43 | 22.91873 | 88.06005 | 18903 ft | 298 kts | 38° |
| 2026-04-22 12:43 | 22.93039 | 88.06869 | 18629 ft | 297 kts | 27° |
| 2026-04-22 12:43 | 22.94984 | 88.07685 | 18221 ft | 295 kts | 11° |
| 2026-04-22 12:44 | 22.97046 | 88.07899 | 17817 ft | 292 kts | 355° |
| 2026-04-22 12:44 | 22.99709 | 88.07246 | 17288 ft | 287 kts | 334° |
| 2026-04-22 12:44 | 23.01432 | 88.06138 | 16905 ft | 282 kts | 319° |
| 2026-04-22 12:44 | 23.02398 | 88.05151 | 16651 ft | 280 kts | 309° |
| 2026-04-22 12:45 | 23.03529 | 88.03394 | 16279 ft | 276 kts | 298° |
| 2026-04-22 12:45 | 23.04470 | 88.01571 | 15919 ft | 274 kts | 297° |
| 2026-04-22 12:45 | 23.05404 | 87.99718 | 15543 ft | 272 kts | 297° |
| 2026-04-22 12:45 | 23.06332 | 87.97898 | 15172 ft | 271 kts | 297° |
| 2026-04-22 12:46 | 23.07276 | 87.96068 | 14797 ft | 270 kts | 297° |
| 2026-04-22 12:46 | 23.08205 | 87.94276 | 14430 ft | 268 kts | 297° |
| 2026-04-22 12:46 | 23.09100 | 87.91724 | 13923 ft | 265 kts | 279° |
| 2026-04-22 12:46 | 23.09239 | 87.90381 | 13673 ft | 263 kts | 270° |
| 2026-04-22 12:47 | 23.09069 | 87.88400 | 13303 ft | 261 kts | 256° |
| 2026-04-22 12:47 | 23.08446 | 87.86480 | 12922 ft | 259 kts | 243° |
| 2026-04-22 12:47 | 23.07026 | 87.84338 | 12426 ft | 258 kts | 225° |
| 2026-04-22 12:47 | 23.05578 | 87.83106 | 12054 ft | 258 kts | 211° |
| 2026-04-22 12:48 | 23.04506 | 87.82524 | 11812 ft | 258 kts | 202° |
| 2026-04-22 12:48 | 23.02731 | 87.82003 | 11449 ft | 257 kts | 188° |
| 2026-04-22 12:48 | 23.00304 | 87.82060 | 10976 ft | 257 kts | 170° |
| 2026-04-22 12:48 | 22.99121 | 87.82405 | 10743 ft | 257 kts | 161° |
| 2026-04-22 12:49 | 22.96991 | 87.83670 | 10278 ft | 256 kts | 142° |
| 2026-04-22 12:49 | 22.96094 | 87.84561 | 10047 ft | 256 kts | 133° |
| 2026-04-22 12:49 | 22.94718 | 87.86699 | 9598 ft | 255 kts | 121° |
| 2026-04-22 12:49 | 22.93837 | 87.88407 | 9268 ft | 253 kts | 120° |
| 2026-04-22 12:50 | 22.93261 | 87.89539 | 9182 ft | 250 kts | 120° |
| 2026-04-22 12:50 | 22.92391 | 87.91239 | 9141 ft | 253 kts | 121° |
| 2026-04-22 12:50 | 22.91503 | 87.92955 | 9124 ft | 253 kts | 121° |
| 2026-04-22 12:50 | 22.90336 | 87.95195 | 9118 ft | 253 kts | 121° |
| 2026-04-22 12:51 | 22.89545 | 87.96980 | 8889 ft | 256 kts | 109° |
| 2026-04-22 12:51 | 22.89162 | 87.98924 | 8534 ft | 258 kts | 95° |
| 2026-04-22 12:51 | 22.89145 | 88.00230 | 8314 ft | 258 kts | 88° |
| 2026-04-22 12:51 | 22.89271 | 88.02251 | 7981 ft | 258 kts | 90° |
| 2026-04-22 12:52 | 22.89213 | 88.04214 | 7661 ft | 256 kts | 95° |
| 2026-04-22 12:52 | 22.89062 | 88.06177 | 7344 ft | 254 kts | 97° |
| 2026-04-22 12:52 | 22.88815 | 88.08784 | 6923 ft | 252 kts | 97° |
| 2026-04-22 12:52 | 22.88722 | 88.10083 | 6713 ft | 252 kts | 94° |
| 2026-04-22 12:53 | 22.88719 | 88.12030 | 6607 ft | 259 kts | 90° |
| 2026-04-22 12:53 | 22.88790 | 88.14053 | 6612 ft | 262 kts | 89° |
| 2026-04-22 12:53 | 22.88869 | 88.16071 | 6299 ft | 263 kts | 89° |
| 2026-04-22 12:53 | 22.88949 | 88.18080 | 5971 ft | 261 kts | 89° |
| 2026-04-22 12:54 | 22.89026 | 88.20084 | 5651 ft | 259 kts | 89° |
| 2026-04-22 12:54 | 22.89100 | 88.22066 | 5336 ft | 257 kts | 89° |
| 2026-04-22 12:54 | 22.89197 | 88.24704 | 4917 ft | 255 kts | 90° |
| 2026-04-22 12:54 | 22.89244 | 88.25996 | 4714 ft | 254 kts | 90° |
| 2026-04-22 12:55 | 22.89314 | 88.27942 | 4410 ft | 252 kts | 90° |
| 2026-04-22 12:55 | 22.89383 | 88.29880 | 4115 ft | 248 kts | 90° |
| 2026-04-22 12:55 | 22.89473 | 88.32348 | 4066 ft | 233 kts | 90° |
| 2026-04-22 12:55 | 22.89515 | 88.33535 | 4036 ft | 234 kts | 90° |
| 2026-04-22 12:56 | 22.89578 | 88.35323 | 3935 ft | 233 kts | 90° |
| 2026-04-22 12:56 | 22.89623 | 88.37128 | 3867 ft | 232 kts | 92° |
| 2026-04-22 12:56 | 22.89577 | 88.38920 | 3731 ft | 230 kts | 95° |
| 2026-04-22 12:56 | 22.89480 | 88.41276 | 3641 ft | 227 kts | 95° |
| 2026-04-22 12:57 | 22.89430 | 88.42451 | 3419 ft | 228 kts | 95° |
| 2026-04-22 12:57 | 22.89357 | 88.44217 | 3069 ft | 228 kts | 97° |
| 2026-04-22 12:57 | 22.88859 | 88.45836 | 2721 ft | 222 kts | 129° |
| 2026-04-22 12:57 | 22.87129 | 88.47012 | 2288 ft | 217 kts | 168° |
| 2026-04-22 12:58 | 22.86128 | 88.47131 | 2095 ft | 216 kts | 178° |
| 2026-04-22 12:58 | 22.84582 | 88.47039 | 1993 ft | 216 kts | 185° |
| 2026-04-22 12:58 | 22.83047 | 88.46845 | 1990 ft | 217 kts | 186° |
| 2026-04-22 12:58 | 22.81518 | 88.46646 | 1988 ft | 217 kts | 185° |
| 2026-04-22 12:59 | 22.79972 | 88.46458 | 1987 ft | 217 kts | 185° |
| 2026-04-22 12:59 | 22.77949 | 88.46224 | 1971 ft | 205 kts | 185° |
| 2026-04-22 12:59 | 22.76549 | 88.46064 | 1933 ft | 188 kts | 185° |
| 2026-04-22 12:59 | 22.75260 | 88.45916 | 1668 ft | 175 kts | 184° |
| 2026-04-22 13:00 | 22.74455 | 88.45823 | 1488 ft | 168 kts | 184° |
| 2026-04-22 13:00 | 22.73294 | 88.45689 | 1237 ft | 156 kts | 184° |
| 2026-04-22 13:00 | 22.71912 | 88.45528 | 987 ft | 136 kts | 184° |
| 2026-04-22 13:00 | 22.71278 | 88.45454 | 858 ft | 132 kts | 183° |
| 2026-04-22 13:01 | 22.70041 | 88.45257 | 619 ft | 131 kts | 185° |
| 2026-04-22 13:01 | 22.69119 | 88.45139 | 439 ft | 130 kts | 182° |
| 2026-04-22 13:01 | 22.68199 | 88.45046 | 265 ft | 130 kts | 181° |
| 2026-04-22 13:01 | 22.67303 | 88.44950 | 98 ft | 129 kts | 182° |
| 2026-04-22 13:02 | 22.66399 | 88.44862 | 22 ft | 111 kts | 183° |
| 2026-04-22 13:02 | 22.65797 | 88.44808 | 22 ft | 60 kts | 185° |
| 2026-04-22 13:02 | 22.65409 | 88.44769 | 23 ft | 51 kts | 181° |
| 2026-04-22 13:02 | 22.65107 | 88.44734 | 25 ft | 28 kts | 184° |
| 2026-04-22 13:03 | 22.64925 | 88.44668 | 24 ft | 22 kts | 219° |
| 2026-04-22 13:03 | 22.64805 | 88.44585 | 24 ft | 16 kts | 212° |
| 2026-04-22 13:03 | 22.64739 | 88.44541 | 23 ft | 16 kts | 211° |
| 2026-04-22 13:03 | 22.64632 | 88.44476 | 22 ft | 17 kts | 197° |
| 2026-04-22 13:04 | 22.64499 | 88.44464 | 22 ft | 13 kts | 186° |
| 2026-04-22 13:04 | 22.64401 | 88.44450 | 22 ft | 13 kts | 191° |
| 2026-04-22 13:04 | 22.64304 | 88.44429 | 21 ft | 14 kts | 186° |
| 2026-04-22 13:04 | 22.64245 | 88.44423 | 20 ft | 9 kts | 184° |
| 2026-04-22 13:05 | 22.64189 | 88.44395 | 21 ft | 8 kts | 241° |
| 2026-04-22 13:05 | 22.64172 | 88.44344 | 22 ft | 0 kts | 251° |
| 2026-04-22 13:05 | 22.64171 | 88.44340 | 22 ft | 0 kts | 251° |
| 2026-04-22 13:05 | 22.64168 | 88.44331 | 22 ft | 2 kts | 254° |
| 2026-04-22 13:06 | 22.64163 | 88.44303 | 22 ft | 5 kts | 264° |
| 2026-04-22 13:06 | 22.64165 | 88.44252 | 22 ft | 7 kts | 274° |
| 2026-04-22 13:06 | 22.64168 | 88.44212 | 22 ft | 7 kts | 274° |
| 2026-04-22 13:06 | 22.64174 | 88.44151 | 22 ft | 8 kts | 277° |
| 2026-04-22 13:07 | 22.64184 | 88.44093 | 23 ft | 7 kts | 282° |
| 2026-04-22 13:07 | 22.64190 | 88.44055 | 24 ft | 0 kts | 275° |